Terminal Aerodrome Forecast
Issued by NWS Nashville, TN

Home | Current Version | Previous Version | Text Only | Print | Product List | Glossary On
Versions: 1 2 3 4 5 6 7 8 9 10 11 12 13 14 15 16 17 18 19
000
FTUS44 KOHX 260500
TAFBNA
TAF
KBNA 260520Z 2606/2706 16008KT P6SM SCT100 BKN200
     FM261500 18012KT P6SM VCSH OVC050
     FM261800 19012G25KT P6SM VCTS BKN050CB
     FM262300 20010KT P6SM SCT050 BKN250=

USA.gov is the U.S. government's official web portal to all federal, state and local government web resources and services.